Aviation Digital Data Service (ADDS)

Output produced by METARs form (1018 UTC 23 March 2017)
found at http://aviationweather.gov/adds/metars/
 
KLCH 230804Z 2308/2406 VRB03KT 1/4SM FG VV003 
     TEMPO 2308/2312 2SM BR SCT003 
     FM231200 00000KT 1SM BR VV003 
     TEMPO 2312/2316 4SM BR SCT012 
     FM231600 15008KT P6SM SCT020